Time;durP1;ratioP1;P1;durP2;ratioP2;P2;SDS_P1;SDS_P2;PMS_P1;PMS_P2;Temp;Humidity;BMP_temperature;BMP_pressure;BME280_temperature;BME280_humidity;BME280_pressure;Samples;Min_cycle;Max_cycle;Signal;HPM_P1;HPM_P2
2022/07/22 00:02:57;;;;;;;9.93;7.12;;;;;;;23.83;69.50;100350.49;2815865;83;20989;-87
2022/07/22 00:06:58;;;;;;;9.93;6.95;;;;;;;23.66;70.33;100355.55;2816288;84;21057;-87
2022/07/22 00:10:59;;;;;;;8.80;7.25;;;;;;;23.58;70.17;100355.24;2805254;84;20983;-87
2022/07/22 00:15:01;;;;;;;10.05;7.37;;;;;;;23.57;70.04;100345.43;2817438;82;21053;-87
2022/07/22 00:19:02;;;;;;;10.30;7.90;;;;;;;23.57;70.19;100348.66;2752221;83;21039;-87
2022/07/22 00:23:03;;;;;;;9.58;8.60;;;;;;;23.52;70.45;100348.77;2832456;82;21027;-87
2022/07/22 00:27:04;;;;;;;8.20;6.53;;;;;;;23.52;70.45;100343.34;2828446;82;20982;-87
2022/07/22 00:31:06;;;;;;;15.55;8.50;;;;;;;23.44;71.08;100354.93;2809644;83;21408;-85
2022/07/22 00:35:08;;;;;;;11.15;6.65;;;;;;;23.40;71.29;100359.97;2833675;82;21524;-86
2022/07/22 00:39:09;;;;;;;14.00;7.25;;;;;;;23.41;71.50;100367.06;2811145;82;21015;-87
2022/07/22 00:43:11;;;;;;;14.25;8.13;;;;;;;23.36;72.03;100378.53;2865424;81;21433;-87
2022/07/22 00:47:12;;;;;;;9.93;8.65;;;;;;;23.39;72.33;100386.80;2846612;82;21004;-86
2022/07/22 00:51:14;;;;;;;9.23;8.23;;;;;;;23.44;72.44;100378.00;2844732;82;21054;-86
2022/07/22 00:55:15;;;;;;;11.43;7.33;;;;;;;23.38;72.94;100362.87;2853591;82;20943;-87
2022/07/22 00:59:17;;;;;;;12.23;8.60;;;;;;;23.35;72.65;100345.66;2850841;82;21019;-87
2022/07/22 01:03:18;;;;;;;10.18;8.98;;;;;;;23.34;72.96;100353.99;2844365;82;20983;-86
2022/07/22 01:07:20;;;;;;;9.10;8.23;;;;;;;23.36;72.63;100360.89;2850956;82;20999;-87
2022/07/22 01:11:22;;;;;;;13.25;7.55;;;;;;;23.34;73.94;100360.78;2850099;82;21534;-87
2022/07/22 01:15:23;;;;;;;36.03;9.75;;;;;;;23.29;73.43;100372.79;2844513;82;20960;-87
2022/07/22 01:19:24;;;;;;;9.85;8.08;;;;;;;23.28;73.37;100398.25;2843981;82;21048;-88
2022/07/22 01:23:26;;;;;;;8.65;7.78;;;;;;;23.21;74.60;100409.91;2854397;82;20969;-88
2022/07/22 01:27:29;;;;;;;11.63;8.18;;;;;;;23.04;75.86;100431.15;2880404;81;21000;-87
2022/07/22 01:31:30;;;;;;;15.55;8.43;;;;;;;23.00;77.66;100391.10;2852956;81;21014;-87
2022/07/22 01:35:32;;;;;;;15.10;9.08;;;;;;;22.90;81.42;100384.72;2876143;82;21004;-86
2022/07/22 01:39:33;;;;;;;14.53;8.25;;;;;;;22.77;84.39;100392.27;2859159;82;21038;-86
2022/07/22 01:43:34;;;;;;;19.82;9.45;;;;;;;22.73;86.36;100386.44;2835820;81;20998;-86
2022/07/22 01:47:36;;;;;;;13.78;9.63;;;;;;;22.77;87.42;100396.34;2843708;82;21006;-87
2022/07/22 01:51:37;;;;;;;15.85;9.83;;;;;;;22.78;86.22;100383.09;2867460;82;20972;-86
2022/07/22 01:55:39;;;;;;;31.05;10.65;;;;;;;22.93;86.41;100384.30;2850370;81;20992;-87
2022/07/22 01:59:40;;;;;;;15.45;10.68;;;;;;;23.07;86.01;100384.62;2874237;82;21040;-87
2022/07/22 02:03:41;;;;;;;16.15;10.60;;;;;;;23.13;85.35;100387.57;2863074;82;21012;-87
2022/07/22 02:07:42;;;;;;;14.35;11.12;;;;;;;23.25;85.98;100400.34;2838724;82;21574;-86
2022/07/22 02:11:43;;;;;;;15.25;9.25;;;;;;;23.36;85.99;100384.47;2856280;82;20988;-86
2022/07/22 02:15:44;;;;;;;17.23;9.65;;;;;;;23.40;86.79;100381.67;2860895;82;21039;-87
2022/07/22 02:19:45;;;;;;;20.48;10.58;;;;;;;23.43;85.86;100385.83;2841901;82;21000;-86
2022/07/22 02:23:47;;;;;;;16.95;10.28;;;;;;;23.49;86.67;100383.13;2856799;82;20944;-87
2022/07/22 02:27:48;;;;;;;19.55;11.70;;;;;;;23.38;87.92;100401.38;2859636;82;21003;-87
2022/07/22 02:31:49;;;;;;;15.30;9.75;;;;;;;23.33;89.12;100410.16;2870009;82;21012;-86
2022/07/22 02:35:50;;;;;;;13.70;10.65;;;;;;;23.33;91.56;100414.74;2845771;82;20987;-87
2022/07/22 02:39:51;;;;;;;15.10;12.20;;;;;;;23.21;89.85;100425.34;2849877;82;21086;-87
2022/07/22 02:43:54;;;;;;;18.92;11.12;;;;;;;23.23;89.34;100430.89;2872552;81;20966;-86
2022/07/22 02:47:56;;;;;;;16.75;11.45;;;;;;;23.30;89.21;100423.30;2856295;82;20995;-86
2022/07/22 02:51:57;;;;;;;16.80;11.83;;;;;;;23.33;88.85;100431.02;2851209;82;20964;-87
2022/07/22 02:55:58;;;;;;;16.62;12.68;;;;;;;23.37;88.89;100430.92;2851655;82;21093;-87
2022/07/22 02:59:59;;;;;;;17.40;12.15;;;;;;;23.38;89.00;100436.16;2787766;83;20991;-92
2022/07/22 03:04:00;;;;;;;20.85;12.47;;;;;;;23.37;89.40;100437.20;2863502;82;21477;-86
2022/07/22 03:08:02;;;;;;;16.73;12.28;;;;;;;23.31;88.47;100440.75;2869776;81;21007;-87
2022/07/22 03:12:03;;;;;;;14.70;11.30;;;;;;;23.31;88.11;100446.17;2790208;83;20999;-87
2022/07/22 03:16:05;;;;;;;23.30;12.47;;;;;;;23.32;88.19;100445.12;2851497;82;20960;-87
2022/07/22 03:20:09;;;;;;;12.20;9.60;;;;;;;23.23;88.16;100453.95;2852893;82;20999;-87
2022/07/22 03:24:11;;;;;;;12.07;9.20;;;;;;;23.11;88.52;100460.51;2853661;83;21498;-87
2022/07/22 03:28:12;;;;;;;10.32;8.65;;;;;;;22.96;88.89;100453.87;2854996;82;20956;-87
2022/07/22 03:32:13;;;;;;;13.90;9.20;;;;;;;22.83;89.75;100448.42;2851946;83;20964;-87
2022/07/22 03:36:14;;;;;;;11.43;9.58;;;;;;;22.81;89.26;100451.86;2833229;82;21027;-86
2022/07/22 03:40:15;;;;;;;10.93;9.53;;;;;;;22.85;88.88;100439.56;2853515;82;20999;-87
2022/07/22 03:44:16;;;;;;;15.28;10.08;;;;;;;22.85;88.54;100444.98;2852652;83;20984;-87
2022/07/22 03:48:17;;;;;;;16.97;12.18;;;;;;;22.82;88.11;100438.08;2858888;79;20995;-85
2022/07/22 03:52:19;;;;;;;14.38;9.03;;;;;;;22.86;88.10;100442.59;2854708;82;20979;-85
2022/07/22 03:56:20;;;;;;;12.43;9.98;;;;;;;22.88;87.65;100443.22;2799538;83;21000;-83
2022/07/22 04:00:21;;;;;;;25.90;20.65;;;;;;;22.78;90.46;100431.91;2692028;85;20968;-85
2022/07/22 04:04:22;;;;;;;19.70;15.72;;;;;;;22.47;93.00;100433.25;2801947;84;21015;-84
2022/07/22 04:08:23;;;;;;;21.37;17.73;;;;;;;22.28;94.63;100428.00;2794185;83;21511;-86
2022/07/22 04:12:24;;;;;;;15.18;12.03;;;;;;;22.31;93.81;100431.69;2843039;82;21471;-86
2022/07/22 04:16:25;;;;;;;20.88;17.10;;;;;;;22.32;94.53;100432.00;2857588;82;20975;-85
2022/07/22 04:20:27;;;;;;;13.35;11.88;;;;;;;22.43;94.02;100425.18;2834618;82;21463;-84
2022/07/22 04:24:28;;;;;;;14.83;11.60;;;;;;;22.61;93.62;100417.38;2793021;84;20943;-85
2022/07/22 04:28:29;;;;;;;12.03;10.35;;;;;;;22.76;92.42;100410.94;2833066;82;20988;-84
2022/07/22 04:32:30;;;;;;;16.23;10.35;;;;;;;22.86;92.05;100410.55;2862406;82;20992;-85
2022/07/22 04:36:31;;;;;;;14.63;12.00;;;;;;;23.04;92.28;100412.70;2875966;82;21026;-85
2022/07/22 04:40:32;;;;;;;13.48;11.90;;;;;;;23.52;93.98;100398.17;2845135;80;21601;-86
2022/07/22 04:44:33;;;;;;;28.00;15.05;;;;;;;24.08;93.83;100390.61;2846155;82;21035;-85
2022/07/22 04:48:35;;;;;;;14.28;12.30;;;;;;;24.72;90.57;100385.33;2839886;83;21487;-85
2022/07/22 04:52:36;;;;;;;13.78;12.20;;;;;;;24.90;86.21;100390.06;2869299;80;21000;-85
2022/07/22 04:56:37;;;;;;;14.68;11.88;;;;;;;25.05;84.85;100380.77;2850761;82;21008;-84
2022/07/22 05:00:38;;;;;;;13.05;11.65;;;;;;;24.88;84.77;100384.00;2859575;81;20996;-85
2022/07/22 05:04:39;;;;;;;15.32;12.90;;;;;;;24.66;85.19;100385.66;2859537;81;20983;-85
2022/07/22 05:08:41;;;;;;;16.57;13.58;;;;;;;24.53;85.76;100384.36;2861107;81;21043;-85
2022/07/22 05:12:43;;;;;;;18.75;12.28;;;;;;;24.45;87.81;100377.28;2864441;82;20987;-86
2022/07/22 05:16:44;;;;;;;17.65;13.60;;;;;;;24.21;88.55;100379.68;2839667;82;20960;-86
2022/07/22 05:20:45;;;;;;;16.60;12.35;;;;;;;24.22;89.32;100373.73;2820775;82;20991;-85
2022/07/22 05:24:46;;;;;;;23.25;13.10;;;;;;;24.31;89.10;100370.26;2871906;81;21046;-85
2022/07/22 05:28:47;;;;;;;14.98;13.38;;;;;;;24.50;90.01;100372.05;2851278;81;20995;-85
2022/07/22 05:32:48;;;;;;;19.75;15.50;;;;;;;24.89;91.09;100365.27;2840532;82;21000;-84
2022/07/22 05:36:50;;;;;;;13.62;11.97;;;;;;;25.63;89.40;100356.53;2859257;82;20941;-86
2022/07/22 05:40:51;;;;;;;17.15;14.00;;;;;;;26.43;87.50;100361.36;2844871;82;21051;-84
2022/07/22 05:44:52;;;;;;;12.70;11.40;;;;;;;27.26;80.98;100359.45;2846693;82;21071;-85
2022/07/22 05:48:54;;;;;;;14.63;11.85;;;;;;;27.70;75.24;100350.95;2846230;81;20964;-86
2022/07/22 05:52:55;;;;;;;15.48;12.75;;;;;;;28.00;73.45;100358.98;2861684;82;20980;-85
2022/07/22 05:56:57;;;;;;;14.45;11.90;;;;;;;28.20;72.99;100364.62;2840501;82;21000;-85
2022/07/22 06:00:58;;;;;;;14.95;11.48;;;;;;;28.40;70.74;100363.38;2826891;82;20968;-86
2022/07/22 06:05:00;;;;;;;20.57;9.18;;;;;;;28.45;69.97;100349.80;2849806;82;20975;-85
2022/07/22 06:09:01;;;;;;;11.90;10.20;;;;;;;28.44;68.04;100370.02;2851222;82;20953;-85
2022/07/22 06:13:02;;;;;;;12.05;10.85;;;;;;;28.54;67.54;100372.97;2819807;83;20966;-85
2022/07/22 06:17:03;;;;;;;12.65;10.32;;;;;;;28.56;67.76;100369.97;2872845;80;21000;-85
2022/07/22 06:21:07;;;;;;;11.60;10.13;;;;;;;28.47;69.87;100374.99;2862562;82;21011;-85
2022/07/22 06:25:08;;;;;;;16.62;9.85;;;;;;;28.52;65.86;100372.38;2831407;82;21039;-85
2022/07/22 06:29:10;;;;;;;13.88;9.33;;;;;;;28.41;65.66;100360.93;2866756;82;21578;-85
2022/07/22 06:33:11;;;;;;;9.80;8.03;;;;;;;28.28;67.05;100349.74;2833693;82;20940;-86
2022/07/22 06:37:12;;;;;;;9.63;8.23;;;;;;;28.45;65.83;100373.05;2853369;82;21043;-85
2022/07/22 06:45:51;;;;;;;12.28;9.58;;;;;;;28.55;65.15;100377.88;2838933;81;21108;-86
2022/07/22 06:49:52;;;;;;;11.45;10.35;;;;;;;28.71;64.86;100372.19;2853726;81;21094;-85
2022/07/22 06:53:53;;;;;;;10.28;8.75;;;;;;;28.96;63.96;100369.64;2835121;81;20983;-86
2022/07/22 06:57:54;;;;;;;13.55;9.70;;;;;;;29.02;62.75;100369.49;2840725;81;21025;-85
2022/07/22 07:01:57;;;;;;;11.48;9.38;;;;;;;29.19;62.16;100368.68;2798049;81;20987;-86
2022/07/22 07:05:59;;;;;;;9.78;8.83;;;;;;;29.31;61.96;100366.67;2807384;81;21009;-84
2022/07/22 07:10:01;;;;;;;9.23;8.33;;;;;;;29.54;61.91;100368.15;2806591;81;21046;-86
2022/07/22 07:14:02;;;;;;;9.58;8.70;;;;;;;29.74;61.42;100365.70;2816064;81;20975;-86
2022/07/22 07:18:04;;;;;;;15.08;8.75;;;;;;;29.90;59.21;100372.78;2832828;81;20978;-86
2022/07/22 07:22:05;;;;;;;14.55;8.78;;;;;;;30.04;58.81;100365.04;2849876;81;21065;-85
2022/07/22 07:26:07;;;;;;;9.88;7.58;;;;;;;30.06;58.65;100370.53;2827469;83;21014;-85
2022/07/22 07:30:10;;;;;;;11.15;9.45;;;;;;;30.11;59.12;100371.71;2862569;81;30541;-86
2022/07/22 07:34:11;;;;;;;10.43;8.10;;;;;;;30.30;58.44;100374.42;2843855;81;21019;-85
2022/07/22 07:38:13;;;;;;;11.22;8.30;;;;;;;30.43;57.59;100379.20;2848637;81;20994;-84
2022/07/22 07:42:14;;;;;;;8.78;7.95;;;;;;;30.49;57.70;100376.83;2860236;81;21038;-85
2022/07/22 07:46:15;;;;;;;7.40;6.47;;;;;;;30.54;57.21;100382.37;2879700;82;21004;-86
2022/07/22 07:50:16;;;;;;;11.25;7.40;;;;;;;30.68;55.37;100384.75;2850069;81;21067;-85
2022/07/22 07:54:17;;;;;;;7.80;6.97;;;;;;;30.66;54.00;100391.85;2854203;81;20999;-86
2022/07/22 07:58:19;;;;;;;12.18;7.25;;;;;;;30.72;54.64;100388.63;2869640;81;20951;-86
2022/07/22 08:02:20;;;;;;;10.25;7.08;;;;;;;30.80;53.73;100389.52;2866688;81;21003;-86
2022/07/22 08:06:21;;;;;;;6.95;6.25;;;;;;;30.98;55.50;100384.75;2844137;82;21676;-86
2022/07/22 08:10:22;;;;;;;9.60;7.20;;;;;;;31.01;53.79;100386.97;2782720;81;21023;-84
2022/07/22 08:14:24;;;;;;;9.10;7.33;;;;;;;31.16;54.00;100378.88;2955668;79;20982;-85
2022/07/22 08:18:27;;;;;;;11.03;8.10;;;;;;;31.05;54.34;100383.45;2992860;79;21513;-87
2022/07/22 08:22:28;;;;;;;8.68;6.97;;;;;;;31.39;53.00;100387.88;2991666;77;20983;-85
2022/07/22 08:26:29;;;;;;;5.80;4.95;;;;;;;31.56;50.88;100380.87;2980067;78;20978;-86
2022/07/22 08:30:30;;;;;;;5.33;4.83;;;;;;;31.72;48.89;100372.69;2937316;79;20994;-86
2022/07/22 08:34:31;;;;;;;5.00;4.50;;;;;;;31.70;48.56;100377.62;2960314;78;20994;-86
2022/07/22 08:38:32;;;;;;;4.42;3.92;;;;;;;31.68;48.56;100376.55;2985480;78;21057;-86
2022/07/22 08:42:39;;;;;;;4.22;3.85;;;;;;;31.92;46.85;100388.52;2914642;78;20982;-86
2022/07/22 08:46:45;;;;;;;4.85;4.45;;;;;;;31.96;46.38;100381.95;2954858;79;21016;-85
2022/07/22 08:50:46;;;;;;;7.22;5.37;;;;;;;32.23;49.42;100383.72;2964503;78;20956;-82
2022/07/22 08:54:47;;;;;;;8.73;5.50;;;;;;;32.40;47.85;100386.27;2969386;78;20974;-86
2022/07/22 08:58:48;;;;;;;6.37;5.78;;;;;;;32.39;48.59;100381.86;2974215;79;21002;-86
2022/07/22 09:02:49;;;;;;;7.37;6.55;;;;;;;32.36;48.69;100379.66;2969476;78;20990;-86
2022/07/22 09:06:50;;;;;;;6.83;5.80;;;;;;;32.19;47.59;100380.13;2989399;79;21022;-85
2022/07/22 09:10:51;;;;;;;7.17;5.53;;;;;;;32.40;49.09;100376.64;2913835;79;20990;-86
2022/07/22 09:14:56;;;;;;;6.65;5.92;;;;;;;32.55;49.15;100375.87;2953990;79;20990;-86
2022/07/22 09:18:57;;;;;;;5.65;5.15;;;;;;;32.83;47.72;100367.67;2971097;78;20986;-87
2022/07/22 09:22:58;;;;;;;8.85;5.55;;;;;;;32.58;47.06;100367.06;2982857;78;21002;-85
2022/07/22 09:26:59;;;;;;;5.90;4.60;;;;;;;32.61;47.13;100363.20;2940455;78;20979;-86
2022/07/22 09:31:00;;;;;;;5.35;4.85;;;;;;;32.64;46.82;100363.78;2835760;81;21010;-85
2022/07/22 09:35:05;;;;;;;13.53;6.12;;;;;;;32.85;47.05;100356.36;2915154;81;21034;-86
2022/07/22 09:39:30;;;;;;;7.17;4.95;;;;;;;33.25;47.01;100352.55;2896678;82;21010;-83
2022/07/22 09:43:35;;;;;;;6.50;4.87;;;;;;;33.52;45.71;100343.16;2892307;81;21022;-86
2022/07/22 09:47:36;;;;;;;4.92;4.47;;;;;;;33.67;44.58;100348.64;2876866;81;21027;-86
2022/07/22 09:51:38;;;;;;;5.65;5.15;;;;;;;33.53;43.73;100343.43;2861624;82;20972;-86
2022/07/22 09:55:39;;;;;;;5.12;4.33;;;;;;;33.32;43.50;100346.19;2885203;80;21002;-87
2022/07/22 09:59:41;;;;;;;5.10;3.95;;;;;;;33.18;44.09;100339.86;2856811;82;21011;-86
2022/07/22 10:03:44;;;;;;;5.60;4.80;;;;;;;32.56;44.53;100334.86;2897527;81;21052;-86
2022/07/22 10:07:47;;;;;;;5.60;4.92;;;;;;;32.42;44.99;100333.16;2870597;81;21059;-86
2022/07/22 10:11:48;;;;;;;4.45;3.92;;;;;;;32.43;44.24;100336.22;2860321;81;21066;-86
2022/07/22 10:15:50;;;;;;;4.95;4.20;;;;;;;32.33;44.23;100329.57;2916233;77;21057;-86
2022/07/22 10:19:52;;;;;;;5.25;4.78;;;;;;;32.55;44.50;100327.70;2883403;81;21054;-86
2022/07/22 10:24:17;;;;;;;8.05;4.30;;;;;;;32.73;43.27;100330.47;2877464;81;21015;-86
2022/07/22 10:28:31;;;;;;;5.00;4.50;;;;;;;32.91;43.94;100324.98;2876322;81;21019;-85
2022/07/22 10:32:33;;;;;;;11.08;5.47;;;;;;;33.02;44.07;100322.52;2901911;80;21542;-85
2022/07/22 10:36:38;;;;;;;7.55;4.40;;;;;;;33.12;43.67;100309.29;2915467;79;20959;-86
2022/07/22 10:40:58;;;;;;;5.42;4.92;;;;;;;32.96;43.46;100313.99;2884929;80;21046;-86
2022/07/22 10:45:01;;;;;;;4.30;4.00;;;;;;;32.81;44.47;100309.83;2882286;81;21069;-85
2022/07/22 10:49:03;;;;;;;6.45;5.20;;;;;;;33.23;44.71;100304.59;2869450;81;21026;-87
2022/07/22 10:53:10;;;;;;;4.28;3.77;;;;;;;33.46;43.91;100299.61;2891466;80;21014;-86
2022/07/22 10:57:17;;;;;;;6.97;5.37;;;;;;;33.47;42.74;100291.07;2916266;79;21412;-85
2022/07/22 11:01:22;;;;;;;8.50;5.47;;;;;;;33.50;43.16;100299.88;2883660;81;20999;-84
2022/07/22 11:05:30;;;;;;;5.80;4.62;;;;;;;33.59;43.30;100296.81;2868388;81;20979;-86
2022/07/22 11:09:34;;;;;;;5.58;5.08;;;;;;;33.60;42.85;100294.33;2891802;82;21014;-84
2022/07/22 11:13:38;;;;;;;7.47;5.33;;;;;;;33.25;43.07;100285.03;2890460;81;21533;-85
2022/07/22 11:17:40;;;;;;;5.15;4.67;;;;;;;33.29;43.75;100280.61;2920190;79;20994;-86
2022/07/22 11:21:41;;;;;;;5.58;5.03;;;;;;;33.47;42.80;100274.53;2911238;79;21494;-84
2022/07/22 11:25:43;;;;;;;7.92;5.45;;;;;;;33.31;43.55;100274.27;2896858;79;21073;-85
2022/07/22 11:29:50;;;;;;;5.53;5.03;;;;;;;33.08;43.92;100283.41;2898091;81;21058;-87
2022/07/22 11:33:52;;;;;;;7.65;5.05;;;;;;;33.12;44.56;100278.98;2897068;81;21050;-86
2022/07/22 11:37:57;;;;;;;6.95;5.58;;;;;;;33.00;43.66;100284.78;2916395;79;21019;-84
2022/07/22 11:42:00;;;;;;;7.20;5.08;;;;;;;32.97;43.47;100282.59;2891965;80;20999;-83
2022/07/22 11:46:01;;;;;;;8.78;3.95;;;;;;;32.94;43.36;100276.80;2902658;79;20987;-86
2022/07/22 11:50:03;;;;;;;6.28;4.55;;;;;;;33.05;44.78;100277.08;2882099;80;21066;-86
2022/07/22 11:54:05;;;;;;;7.15;4.72;;;;;;;33.19;43.19;100270.44;2866342;80;20998;-86
2022/07/22 11:58:06;;;;;;;7.58;4.62;;;;;;;33.24;43.51;100269.61;2893022;80;21038;-84
2022/07/22 12:02:09;;;;;;;6.00;5.05;;;;;;;33.41;43.87;100254.95;2884068;81;20979;-85
2022/07/22 12:06:13;;;;;;;6.85;4.97;;;;;;;33.76;43.26;100264.78;2891681;80;21628;-85
2022/07/22 12:10:14;;;;;;;5.97;5.20;;;;;;;33.92;43.26;100258.63;2899648;79;20967;-85
2022/07/22 12:14:22;;;;;;;11.15;6.60;;;;;;;34.09;41.87;100250.56;2832579;81;21050;-87
2022/07/22 12:18:26;;;;;;;5.40;4.50;;;;;;;33.99;41.76;100245.94;2829697;82;21551;-85
2022/07/22 12:22:27;;;;;;;7.22;4.05;;;;;;;33.91;42.01;100234.91;2877360;81;21011;-86
2022/07/22 12:26:48;;;;;;;5.33;4.83;;;;;;;34.05;42.09;100235.12;2849824;81;21012;-87
2022/07/22 12:30:51;;;;;;;10.60;4.25;;;;;;;33.94;41.49;100239.05;2896783;81;21026;-86
2022/07/22 12:35:02;;;;;;;5.58;4.35;;;;;;;33.70;41.46;100235.02;2869536;81;21008;-86
2022/07/22 12:39:18;;;;;;;18.32;8.28;;;;;;;33.63;41.95;100230.37;2853014;82;21046;-86
2022/07/22 12:43:25;;;;;;;7.70;4.72;;;;;;;33.41;42.90;100231.53;2882533;82;21913;-87
2022/07/22 12:47:58;;;;;;;5.55;3.98;;;;;;;33.72;41.84;100224.52;2774813;83;21042;-83
2022/07/22 12:52:13;;;;;;;4.33;3.92;;;;;;;34.03;41.46;100217.50;2828168;82;21354;-86
2022/07/22 12:56:14;;;;;;;7.37;5.08;;;;;;;33.93;41.09;100231.88;2774334;83;21530;-86
2022/07/22 13:00:25;;;;;;;7.12;4.10;;;;;;;33.63;41.86;100226.77;2822673;82;21487;-86
2022/07/22 13:04:27;;;;;;;6.53;4.72;;;;;;;33.56;41.79;100222.39;2782991;83;21022;-83
2022/07/22 13:08:29;;;;;;;5.62;4.20;;;;;;;33.49;41.69;100226.56;2824488;84;21036;-88
2022/07/22 13:12:30;;;;;;;14.80;5.12;;;;;;;33.25;42.53;100224.41;2816108;83;21023;-85
2022/07/22 13:16:32;;;;;;;4.30;3.92;;;;;;;33.47;42.19;100219.39;2832069;82;21088;-87
2022/07/22 13:20:34;;;;;;;4.90;4.40;;;;;;;33.78;41.85;100219.81;2806875;84;20992;-88
2022/07/22 13:24:35;;;;;;;7.92;5.17;;;;;;;33.98;40.90;100221.64;2789061;84;21015;-87
2022/07/22 13:28:36;;;;;;;12.35;5.53;;;;;;;33.93;41.35;100227.17;2810953;82;21074;-88
2022/07/22 13:32:38;;;;;;;6.08;4.05;;;;;;;33.83;41.55;100219.77;2756488;84;20979;-85
2022/07/22 13:36:39;;;;;;;11.08;5.60;;;;;;;33.66;41.73;100217.39;2803819;84;20956;-86
2022/07/22 13:40:40;;;;;;;10.88;5.70;;;;;;;33.47;42.16;100218.02;2771896;84;21015;-88
2022/07/22 13:44:41;;;;;;;9.70;4.47;;;;;;;33.12;42.44;100216.18;2794838;82;21046;-85
2022/07/22 13:48:43;;;;;;;7.08;4.70;;;;;;;33.25;42.00;100216.14;2869785;81;21006;-88
2022/07/22 13:52:47;;;;;;;5.28;4.45;;;;;;;33.63;41.95;100201.95;2856325;82;21019;-85
2022/07/22 13:56:48;;;;;;;4.90;4.40;;;;;;;33.69;41.25;100200.27;2876650;80;21566;-87
2022/07/22 14:00:49;;;;;;;8.18;5.22;;;;;;;33.89;41.90;100200.70;2782990;83;21091;-88
2022/07/22 14:04:50;;;;;;;6.45;5.30;;;;;;;34.25;41.38;100196.09;2827419;81;21028;-87
2022/07/22 14:08:51;;;;;;;6.05;4.70;;;;;;;34.33;40.88;100196.87;2861053;82;21050;-88
2022/07/22 14:12:53;;;;;;;4.95;4.58;;;;;;;34.35;40.92;100202.92;2859304;82;21061;-89
2022/07/22 14:16:54;;;;;;;4.62;4.22;;;;;;;34.28;41.19;100197.72;2883508;82;20994;-89
2022/07/22 14:20:55;;;;;;;4.85;4.45;;;;;;;34.56;41.19;100188.41;2825795;81;20996;-88
2022/07/22 14:24:56;;;;;;;5.22;4.62;;;;;;;34.60;40.88;100191.41;2811665;82;21043;-88
2022/07/22 14:28:58;;;;;;;20.05;6.72;;;;;;;34.65;40.82;100178.12;2782819;84;21019;-89
2022/07/22 14:33:00;;;;;;;7.42;5.37;;;;;;;34.69;40.21;100191.61;2797334;81;21078;-84
2022/07/22 14:37:01;;;;;;;6.37;4.58;;;;;;;34.55;40.49;100192.28;2784429;84;20975;-86
2022/07/22 14:41:03;;;;;;;5.12;4.28;;;;;;;34.01;41.07;100188.53;2758453;85;21571;-84
2022/07/22 14:45:08;;;;;;;8.28;5.35;;;;;;;33.59;42.15;100188.73;2778688;82;21020;-89
2022/07/22 14:49:10;;;;;;;5.08;4.58;;;;;;;33.27;42.37;100190.50;2894450;81;21470;-93
2022/07/22 14:53:12;;;;;;;9.35;5.15;;;;;;;33.33;42.48;100182.48;2832370;81;20995;-90
2022/07/22 14:57:13;;;;;;;6.05;5.15;;;;;;;33.32;42.14;100188.56;2841206;82;20968;-90
2022/07/22 15:01:14;;;;;;;8.50;6.35;;;;;;;33.34;42.28;100177.23;2796414;83;20999;-89
2022/07/22 15:05:15;;;;;;;6.58;5.28;;;;;;;33.42;42.64;100175.29;2847708;81;21003;-92
2022/07/22 15:09:16;;;;;;;11.15;5.58;;;;;;;33.33;42.38;100177.80;2843263;81;21550;-87
2022/07/22 15:13:19;;;;;;;7.20;6.30;;;;;;;33.04;43.21;100184.52;2849575;82;21015;-87
2022/07/22 15:17:20;;;;;;;7.53;5.20;;;;;;;32.96;43.24;100179.56;2835664;82;21062;-89
2022/07/22 15:21:22;;;;;;;8.73;5.45;;;;;;;33.02;43.93;100182.03;2876831;81;21026;-87
2022/07/22 15:25:23;;;;;;;6.15;5.10;;;;;;;33.11;43.13;100180.91;2894838;80;20975;-88
2022/07/22 15:29:24;;;;;;;16.23;6.17;;;;;;;33.28;43.59;100175.05;2883073;80;20971;-87
2022/07/22 15:33:26;;;;;;;5.20;4.67;;;;;;;33.51;43.34;100170.59;2857301;80;20991;-85
2022/07/22 15:37:27;;;;;;;6.40;5.58;;;;;;;33.28;43.02;100170.11;2830290;82;21425;-88
2022/07/22 15:41:29;;;;;;;5.53;4.97;;;;;;;33.18;43.01;100171.78;2817929;82;21015;-87
2022/07/22 15:45:30;;;;;;;5.00;4.50;;;;;;;33.13;43.20;100167.67;2838496;79;21002;-85
2022/07/22 15:49:31;;;;;;;7.67;5.67;;;;;;;33.14;43.25;100170.70;2927198;79;21022;-88
2022/07/22 15:53:32;;;;;;;6.25;4.20;;;;;;;33.26;43.11;100164.05;2927149;79;20987;-83
2022/07/22 16:01:53;;;;;;;12.90;5.85;;;;;;;33.39;42.84;100167.56;2919542;79;20997;-87
2022/07/22 16:05:55;;;;;;;5.53;4.72;;;;;;;33.13;43.39;100163.53;2886857;80;21002;-87
2022/07/22 16:09:56;;;;;;;6.28;4.20;;;;;;;32.86;43.59;100162.47;2884132;80;21568;-87
2022/07/22 16:13:57;;;;;;;9.00;6.28;;;;;;;32.60;44.61;100163.33;2890466;81;21035;-85
2022/07/22 16:17:58;;;;;;;6.17;5.00;;;;;;;32.37;44.60;100163.91;2918409;79;21034;-87
2022/07/22 16:21:59;;;;;;;6.33;5.42;;;;;;;32.19;44.85;100166.06;2830970;82;21066;-86
2022/07/22 16:26:01;;;;;;;7.15;6.45;;;;;;;32.07;45.08;100166.90;2886220;80;21575;-85
2022/07/22 16:30:02;;;;;;;9.48;5.67;;;;;;;31.85;45.54;100162.46;2883803;80;21010;-86
2022/07/22 16:34:04;;;;;;;8.15;6.05;;;;;;;31.77;45.72;100158.31;2898319;80;21045;-88
2022/07/22 16:38:05;;;;;;;6.67;5.78;;;;;;;31.70;45.61;100161.29;2851150;81;21006;-88
2022/07/22 16:42:06;;;;;;;7.33;5.92;;;;;;;31.77;45.71;100155.00;2874643;81;20947;-87
2022/07/22 16:46:08;;;;;;;6.03;5.15;;;;;;;31.83;45.71;100155.01;2889591;81;21031;-89
2022/07/22 16:50:09;;;;;;;6.53;5.28;;;;;;;31.89;45.44;100154.75;2886683;80;21401;-88
2022/07/22 16:54:10;;;;;;;7.10;5.15;;;;;;;31.99;45.32;100147.62;2886543;81;20986;-84
2022/07/22 16:58:11;;;;;;;8.23;5.12;;;;;;;32.09;44.79;100149.00;2905293;81;20971;-89
2022/07/22 17:02:12;;;;;;;6.37;5.50;;;;;;;32.15;45.35;100151.21;2883403;81;20991;-87
2022/07/22 17:06:13;;;;;;;7.28;6.35;;;;;;;32.09;44.91;100147.62;2903751;79;21362;-87
2022/07/22 17:10:15;;;;;;;7.83;6.00;;;;;;;32.01;45.05;100156.43;2995769;79;20979;-86
2022/07/22 17:14:16;;;;;;;10.70;6.40;;;;;;;31.91;45.22;100151.73;2957039;79;20972;-87
2022/07/22 17:18:17;;;;;;;6.58;5.22;;;;;;;31.93;45.20;100153.66;2900874;78;20927;-89
2022/07/22 17:22:18;;;;;;;6.75;5.22;;;;;;;31.94;45.42;100152.56;2974088;79;20962;-85
2022/07/22 17:26:21;;;;;;;6.85;6.08;;;;;;;31.90;45.64;100152.84;2944797;79;21002;-88
2022/07/22 17:30:23;;;;;;;7.42;6.00;;;;;;;31.70;45.74;100158.54;2928078;79;21012;-88
2022/07/22 17:34:24;;;;;;;11.63;6.55;;;;;;;31.59;46.60;100158.22;2953165;79;21490;-87
2022/07/22 17:38:26;;;;;;;6.08;5.33;;;;;;;31.38;47.10;100160.89;2952416;79;20943;-89
2022/07/22 17:42:27;;;;;;;6.20;5.70;;;;;;;31.14;47.41;100166.80;2955968;78;21605;-85
2022/07/22 17:46:28;;;;;;;6.90;6.30;;;;;;;30.93;47.76;100174.09;2928011;79;21564;-87
2022/07/22 17:50:37;;;;;;;7.05;6.47;;;;;;;30.77;48.13;100167.68;2878108;82;21003;-87
2022/07/22 17:54:34;;;;;;;6.83;5.60;;;;;;;30.63;48.29;100178.30;2948077;78;21081;-85
2022/07/22 17:58:36;;;;;;;12.55;6.80;;;;;;;30.57;48.54;100180.13;2972117;79;21014;-85
2022/07/22 18:02:37;;;;;;;13.38;6.22;;;;;;;30.44;48.68;100183.31;2941157;79;20976;-86
2022/07/22 18:06:39;;;;;;;12.50;7.15;;;;;;;30.29;49.10;100183.48;2941102;79;20991;-85
2022/07/22 18:10:41;;;;;;;8.38;7.55;;;;;;;30.19;49.25;100184.74;2923350;80;20986;-86
2022/07/22 18:14:42;;;;;;;6.85;6.10;;;;;;;30.02;49.49;100184.30;2864070;80;20970;-85
2022/07/22 18:18:45;;;;;;;7.33;6.08;;;;;;;29.81;49.77;100190.63;2957115;79;21615;-87
2022/07/22 18:22:46;;;;;;;11.20;5.90;;;;;;;29.65;49.94;100187.70;2887650;81;21074;-82
2022/07/22 18:26:47;;;;;;;9.35;6.50;;;;;;;29.51;50.22;100185.90;2948137;79;20994;-87
2022/07/22 18:30:49;;;;;;;8.00;6.42;;;;;;;29.34;50.43;100182.64;2948488;79;20967;-85
2022/07/22 18:34:50;;;;;;;8.28;6.45;;;;;;;29.17;50.61;100182.70;2958300;79;20962;-84
2022/07/22 18:38:51;;;;;;;7.60;5.78;;;;;;;28.98;51.07;100186.80;2959589;79;20986;-85
2022/07/22 18:42:52;;;;;;;9.23;6.22;;;;;;;28.78;51.36;100186.75;2973349;79;21036;-85
2022/07/22 18:46:56;;;;;;;8.83;6.10;;;;;;;28.59;51.68;100195.22;2926229;78;21049;-85